createdAt,value
2023-01-19T00:01:42.969Z,112.78184
2023-01-19T00:06:43.859Z,112.84037
2023-01-19T00:11:44.772Z,112.69477
2023-01-19T00:16:45.745Z,112.22004
2023-01-19T00:21:46.663Z,111.30349
2023-01-19T00:26:47.996Z,110.6307
2023-01-19T00:31:49.261Z,110.30299
2023-01-19T00:36:50.190Z,109.86156
2023-01-19T00:41:51.220Z,109.56332
2023-01-19T00:46:52.227Z,108.95732
2023-01-19T00:51:53.134Z,108.34208
2023-01-19T00:56:54.039Z,107.97219
2023-01-19T01:01:55.275Z,107.38104
2023-01-19T01:06:56.336Z,107.17011
2023-01-19T01:11:57.423Z,107.59021
2023-01-19T01:16:58.459Z,107.45502
2023-01-19T01:21:59.410Z,107.43238
2023-01-19T01:27:00.416Z,106.969
2023-01-19T01:32:01.485Z,107.46535
2023-01-19T01:37:02.407Z,107.30686
2023-01-19T01:42:03.342Z,107.29883
2023-01-19T01:47:04.288Z,107.01172
2023-01-19T01:52:05.205Z,106.78314
2023-01-19T01:57:06.094Z,106.15128
2023-01-19T02:02:07.054Z,106.19763
2023-01-19T02:07:08.358Z,106.08991
2023-01-19T02:12:09.302Z,106.0291
2023-01-19T02:17:10.271Z,106.01542
2023-01-19T02:22:11.195Z,106.02425
2023-01-19T02:27:12.134Z,105.94697
2023-01-19T02:32:13.213Z,106.18739
2023-01-19T02:37:14.185Z,105.74578
2023-01-19T02:42:15.130Z,106.69017
2023-01-19T02:47:16.166Z,106.99287
2023-01-19T02:52:17.107Z,107.2928
2023-01-19T02:57:18.147Z,106.61558
2023-01-19T03:02:19.288Z,106.23378
2023-01-19T03:07:20.631Z,106.27573
2023-01-19T03:12:21.628Z,106.43257
2023-01-19T03:17:22.614Z,106.8205
2023-01-19T03:22:23.631Z,106.80854
2023-01-19T03:27:24.613Z,106.33167
2023-01-19T03:32:25.772Z,105.87013
2023-01-19T03:37:26.873Z,106.09726
2023-01-19T03:42:27.811Z,106.15241
2023-01-19T03:47:28.732Z,105.77676
2023-01-19T03:52:29.718Z,105.7042
2023-01-19T03:57:30.758Z,105.45718
2023-01-19T04:02:31.718Z,105.07148
2023-01-19T04:07:32.705Z,104.78674
2023-01-19T04:12:33.648Z,104.23588
2023-01-19T04:17:34.602Z,104.20324
2023-01-19T04:22:35.541Z,103.74554
2023-01-19T04:27:36.453Z,103.97907
2023-01-19T04:32:37.375Z,103.45621
2023-01-19T04:37:38.294Z,103.19808
2023-01-19T04:42:39.193Z,103.47309
2023-01-19T04:47:40.088Z,103.60417
2023-01-19T04:52:41.036Z,103.77128
2023-01-19T04:57:41.957Z,103.98147
2023-01-19T05:02:43.000Z,103.88141
2023-01-19T05:07:43.911Z,104.03162
2023-01-19T05:12:44.940Z,104.05258
2023-01-19T05:17:45.908Z,103.61301
2023-01-19T05:22:46.863Z,103.21423
2023-01-19T05:27:48.362Z,102.9874
2023-01-19T05:32:49.601Z,102.85961
2023-01-19T05:37:50.618Z,102.97581
2023-01-19T05:42:51.553Z,103.04786
2023-01-19T05:47:52.744Z,102.99091
2023-01-19T05:52:53.705Z,101.29716
2023-01-19T05:57:54.640Z,101.16863
2023-01-19T06:02:55.691Z,100.7227
2023-01-19T06:07:56.645Z,100.62421
2023-01-19T06:12:57.561Z,100.48705
2023-01-19T06:17:58.581Z,100.19054
2023-01-19T06:22:59.842Z,100.0095
2023-01-19T06:28:01.041Z,100.26942
2023-01-19T06:33:02.448Z,100.5863
2023-01-19T06:38:03.670Z,100.24943
2023-01-19T06:43:04.587Z,99.72566
2023-01-19T06:48:05.697Z,99.29114
2023-01-19T06:53:06.640Z,99.85191
2023-01-19T06:58:07.574Z,98.98831
2023-01-19T07:03:08.563Z,99.33503
2023-01-19T07:08:09.541Z,98.55432
2023-01-19T07:13:10.453Z,98.11355
2023-01-19T07:18:11.579Z,97.39673
2023-01-19T07:23:12.492Z,96.77272
2023-01-19T07:28:13.399Z,97.01656
2023-01-19T07:33:14.338Z,97.04064
2023-01-19T07:38:15.506Z,96.22001
2023-01-19T07:43:16.642Z,96.41384
2023-01-19T07:48:17.660Z,96.57199
2023-01-19T07:53:18.726Z,96.13011
2023-01-19T07:58:19.767Z,95.85181
2023-01-19T08:03:20.829Z,95.09453
2023-01-19T08:08:22.166Z,95.03669
2023-01-19T08:13:23.175Z,94.49116
2023-01-19T08:18:24.177Z,94.03288
2023-01-19T08:23:25.106Z,93.66597
2023-01-19T08:28:26.089Z,92.98836
2023-01-19T08:33:27.044Z,92.99428
2023-01-19T08:38:27.973Z,93.03292
2023-01-19T08:43:28.972Z,92.64645
2023-01-19T08:48:30.059Z,92.67421
2023-01-19T08:53:31.000Z,93.10248
2023-01-19T08:58:32.017Z,92.92058
2023-01-19T09:03:32.956Z,92.05254
2023-01-19T09:08:33.904Z,91.44247
2023-01-19T09:13:34.849Z,91.02685
2023-01-19T09:18:35.980Z,90.84367
2023-01-19T09:23:36.936Z,90.97761
2023-01-19T09:28:37.866Z,90.84349
2023-01-19T09:33:38.840Z,90.72713
2023-01-19T09:38:39.730Z,90.91471
2023-01-19T09:43:40.672Z,90.88326
2023-01-19T09:48:41.573Z,92.44065
2023-01-19T09:53:42.510Z,93.12527
2023-01-19T09:58:43.431Z,94.29642
2023-01-19T10:03:44.368Z,94.6689
2023-01-19T10:08:45.259Z,94.42505
2023-01-19T10:13:46.170Z,93.72768
2023-01-19T10:18:47.129Z,94.65372
2023-01-19T10:23:48.289Z,93.85604
2023-01-19T10:28:49.444Z,94.99674
2023-01-19T10:33:50.407Z,95.48148
2023-01-19T10:38:51.363Z,95.82092
2023-01-19T10:43:52.310Z,96.75996
2023-01-19T10:48:53.526Z,96.11612
2023-01-19T10:53:54.484Z,95.90445
2023-01-19T10:58:55.417Z,96.16813
2023-01-19T11:03:56.433Z,96.69746
2023-01-19T11:08:57.339Z,97.69871
2023-01-19T11:13:58.256Z,97.49187
2023-01-19T11:18:59.246Z,96.72393
2023-01-19T11:24:00.152Z,97.69956
2023-01-19T11:29:01.083Z,97.78303
2023-01-19T11:34:02.181Z,98.0331
2023-01-19T11:39:03.223Z,98.90044
2023-01-19T11:44:04.177Z,99.77205
2023-01-19T11:49:05.111Z,98.47842
2023-01-19T11:54:06.059Z,98.11648
2023-01-19T11:59:06.948Z,98.28303
2023-01-19T12:04:07.911Z,98.60282
2023-01-19T12:09:08.858Z,99.27825
2023-01-19T12:14:09.792Z,99.21173
2023-01-19T12:19:10.755Z,99.06805
2023-01-19T12:24:11.807Z,98.73062
2023-01-19T12:29:12.740Z,98.66653
2023-01-19T12:34:13.674Z,98.05745
2023-01-19T12:39:14.579Z,98.34254
2023-01-19T12:44:15.501Z,98.28219
2023-01-19T12:49:16.425Z,98.55929
2023-01-19T12:54:17.960Z,98.98738
2023-01-19T12:59:19.845Z,98.93204
2023-01-19T13:04:20.780Z,98.12247
2023-01-19T13:09:21.725Z,97.4592
2023-01-19T13:14:22.649Z,96.92154
2023-01-19T13:19:23.642Z,96.58288
2023-01-19T13:24:24.602Z,95.61586
2023-01-19T13:29:25.534Z,95.11324
2023-01-19T13:34:26.454Z,94.94015
2023-01-19T13:39:27.365Z,94.34209
2023-01-19T13:44:28.295Z,93.61743
2023-01-19T13:49:29.337Z,93.58716
2023-01-19T13:54:30.287Z,93.4535
2023-01-19T13:59:31.237Z,93.33054
2023-01-19T14:04:32.220Z,93.34438
2023-01-19T14:09:33.157Z,93.01071
2023-01-19T14:14:34.294Z,91.63585
2023-01-19T14:19:35.287Z,91.01916
2023-01-19T14:24:36.216Z,90.82373
2023-01-19T14:29:37.114Z,90.95514
2023-01-19T14:34:38.147Z,90.70785
2023-01-19T14:39:39.082Z,90.90583
2023-01-19T14:44:40.022Z,90.64694
2023-01-19T14:49:40.966Z,90.14731
2023-01-19T14:54:41.902Z,90.32229
2023-01-19T14:59:42.837Z,90.25753
2023-01-19T15:04:43.782Z,90.2464
2023-01-19T15:09:44.729Z,90.27845
2023-01-19T15:14:45.708Z,89.28052
2023-01-19T15:19:46.752Z,88.73848
2023-01-19T15:24:48.037Z,89.5336
2023-01-19T15:29:49.298Z,89.36204
2023-01-19T15:34:50.530Z,88.90646
2023-01-19T15:39:51.530Z,88.88518
2023-01-19T15:44:52.485Z,88.45217
2023-01-19T15:49:53.431Z,88.53377
2023-01-19T15:54:54.400Z,87.79651
2023-01-19T15:59:55.383Z,88.02296
2023-01-19T16:04:56.384Z,88.38087
2023-01-19T16:09:57.319Z,88.00727
2023-01-19T16:14:58.245Z,88.40627
2023-01-19T16:19:59.182Z,88.15903
2023-01-19T16:25:00.160Z,87.38653
2023-01-19T16:30:01.083Z,87.7496
2023-01-19T16:35:02.084Z,87.37722
2023-01-19T16:40:03.021Z,87.45247
2023-01-19T16:45:03.927Z,87.53778
2023-01-19T16:50:04.886Z,87.26071
2023-01-19T16:55:05.872Z,86.69694
2023-01-19T17:00:06.911Z,86.62165
2023-01-19T17:05:07.948Z,86.2719
2023-01-19T17:10:09.231Z,86.31275
2023-01-19T17:15:10.535Z,86.53817
2023-01-19T17:20:11.878Z,85.95409
2023-01-19T17:25:13.065Z,86.30078
2023-01-19T17:30:14.312Z,86.57354
2023-01-19T17:35:15.404Z,86.06735
2023-01-19T17:40:16.282Z,86.12529
2023-01-19T17:45:17.196Z,85.68044
2023-01-19T17:50:18.112Z,84.99922
2023-01-19T17:55:19.070Z,84.84793
2023-01-19T18:00:20.114Z,84.49223
2023-01-19T18:05:21.278Z,83.67586
2023-01-19T18:10:22.886Z,83.55278
2023-01-19T18:15:23.842Z,83.51202
2023-01-19T18:20:24.754Z,82.94419
2023-01-19T18:25:25.702Z,82.87424
2023-01-19T18:30:26.651Z,82.30305
2023-01-19T18:35:27.645Z,82.35697
2023-01-19T18:40:28.837Z,82.44978
2023-01-19T18:45:29.803Z,82.24248
2023-01-19T18:50:30.708Z,81.98809
2023-01-19T18:55:31.660Z,81.42864
2023-01-19T19:00:32.630Z,80.73476
2023-01-19T19:05:38.646Z,80.12223
2023-01-19T19:10:39.693Z,79.18902
2023-01-19T19:15:40.673Z,78.99886
2023-01-19T19:20:43.256Z,78.3573
2023-01-19T19:25:44.257Z,78.19229
2023-01-19T19:30:45.821Z,77.37338
2023-01-19T19:35:46.760Z,77.4143
2023-01-19T19:40:47.697Z,76.77157
2023-01-19T19:45:48.888Z,76.73824
2023-01-19T19:50:50.358Z,76.3291
2023-01-19T19:55:51.330Z,75.80329
2023-01-19T20:00:52.390Z,75.47067
2023-01-19T20:05:53.461Z,75.19209
2023-01-19T20:10:54.368Z,74.78504
2023-01-19T20:15:55.331Z,74.61497
2023-01-19T20:20:56.350Z,74.19143
2023-01-19T20:25:57.407Z,73.64398
2023-01-19T20:30:58.354Z,73.06885
2023-01-19T20:35:59.283Z,72.40475
2023-01-19T20:41:00.216Z,72.48349
2023-01-19T20:46:01.188Z,72.45091
2023-01-19T20:51:02.188Z,72.59329
2023-01-19T20:56:05.895Z,71.85642
2023-01-19T21:01:07.244Z,71.40247
2023-01-19T21:06:08.237Z,71.07767
2023-01-19T21:11:09.202Z,71.08081
2023-01-19T21:16:10.253Z,70.37575
2023-01-19T21:21:28.371Z,69.45901
2023-01-19T21:26:30.698Z,69.29286
2023-01-19T21:31:31.713Z,68.57355
2023-01-19T21:36:32.693Z,68.06944
2023-01-19T21:41:33.694Z,67.65873
2023-01-19T21:46:34.595Z,67.20975
2023-01-19T21:51:35.954Z,66.31474
2023-01-19T21:56:36.950Z,65.41659
2023-01-19T22:01:38.025Z,65.25103
2023-01-19T22:06:39.079Z,65.03496
2023-01-19T22:11:40.108Z,64.75858
2023-01-19T22:16:41.095Z,64.12194
2023-01-19T22:21:42.051Z,63.23267
2023-01-19T22:26:43.140Z,63.12743
2023-01-19T22:31:44.063Z,62.58302
2023-01-19T22:36:45.052Z,62.29142
2023-01-19T22:41:46.043Z,61.98764
2023-01-19T22:46:46.994Z,61.51313
2023-01-19T22:51:47.897Z,61.3631
2023-01-19T22:56:49.034Z,61.52033
2023-01-19T23:01:50.390Z,60.92424
2023-01-19T23:06:51.371Z,61.0508
2023-01-19T23:11:52.795Z,60.75882
2023-01-19T23:16:53.711Z,60.32729
2023-01-19T23:21:54.705Z,59.82217
2023-01-19T23:26:55.674Z,59.6565
2023-01-19T23:31:56.701Z,59.34006
2023-01-19T23:36:57.599Z,58.88328
2023-01-19T23:41:58.493Z,58.59007
2023-01-19T23:46:59.416Z,58.33162
2023-01-19T23:52:00.351Z,58.32759
2023-01-19T23:57:01.329Z,58.822
